sensor_id;sensor_type;location;lat;lon;timestamp;temperature;humidity
24146;DHT22;12308;50.948;4.706;2022-12-07T00:02:18;6.50;99.90
24146;DHT22;12308;50.948;4.706;2022-12-07T00:04:43;6.50;99.90
24146;DHT22;12308;50.948;4.706;2022-12-07T00:07:09;6.50;99.90
24146;DHT22;12308;50.948;4.706;2022-12-07T00:09:34;6.40;99.90
24146;DHT22;12308;50.948;4.706;2022-12-07T00:12:00;6.30;99.90
24146;DHT22;12308;50.948;4.706;2022-12-07T00:14:26;6.30;99.90
24146;DHT22;12308;50.948;4.706;2022-12-07T00:16:52;6.20;99.90
24146;DHT22;12308;50.948;4.706;2022-12-07T00:19:18;6.30;99.90
24146;DHT22;12308;50.948;4.706;2022-12-07T00:21:43;6.40;99.90
24146;DHT22;12308;50.948;4.706;2022-12-07T00:24:10;6.40;99.90
24146;DHT22;12308;50.948;4.706;2022-12-07T00:26:38;6.40;99.90
24146;DHT22;12308;50.948;4.706;2022-12-07T00:29:22;6.50;99.90
24146;DHT22;12308;50.948;4.706;2022-12-07T00:31:48;6.50;99.90
24146;DHT22;12308;50.948;4.706;2022-12-07T00:34:17;6.50;99.90
24146;DHT22;12308;50.948;4.706;2022-12-07T00:36:43;6.30;99.90
24146;DHT22;12308;50.948;4.706;2022-12-07T00:39:08;6.30;99.90
24146;DHT22;12308;50.948;4.706;2022-12-07T00:41:34;6.40;99.90
24146;DHT22;12308;50.948;4.706;2022-12-07T00:44:00;6.30;99.90
24146;DHT22;12308;50.948;4.706;2022-12-07T00:46:26;6.40;99.90
24146;DHT22;12308;50.948;4.706;2022-12-07T00:48:53;6.40;99.90
24146;DHT22;12308;50.948;4.706;2022-12-07T00:51:21;6.40;99.90
24146;DHT22;12308;50.948;4.706;2022-12-07T00:53:47;6.40;99.90
24146;DHT22;12308;50.948;4.706;2022-12-07T00:56:21;6.50;99.90
24146;DHT22;12308;50.948;4.706;2022-12-07T00:58:52;6.60;99.90
24146;DHT22;12308;50.948;4.706;2022-12-07T01:01:18;6.40;99.90
24146;DHT22;12308;50.948;4.706;2022-12-07T01:03:44;6.40;99.90
24146;DHT22;12308;50.948;4.706;2022-12-07T01:06:14;6.40;99.90
24146;DHT22;12308;50.948;4.706;2022-12-07T01:08:40;6.40;99.90
24146;DHT22;12308;50.948;4.706;2022-12-07T01:11:08;6.30;99.90
24146;DHT22;12308;50.948;4.706;2022-12-07T01:13:35;6.30;99.90
24146;DHT22;12308;50.948;4.706;2022-12-07T01:16:03;6.30;99.90
24146;DHT22;12308;50.948;4.706;2022-12-07T01:18:31;6.30;99.90
24146;DHT22;12308;50.948;4.706;2022-12-07T01:21:02;6.20;99.90
24146;DHT22;12308;50.948;4.706;2022-12-07T01:23:28;6.30;99.90
24146;DHT22;12308;50.948;4.706;2022-12-07T01:25:58;6.30;99.90
24146;DHT22;12308;50.948;4.706;2022-12-07T01:28:25;6.50;99.90
24146;DHT22;12308;50.948;4.706;2022-12-07T01:31:16;6.50;99.90
24146;DHT22;12308;50.948;4.706;2022-12-07T01:33:44;6.70;99.90
24146;DHT22;12308;50.948;4.706;2022-12-07T01:38:41;6.90;99.90
24146;DHT22;12308;50.948;4.706;2022-12-07T01:41:07;6.80;99.90
24146;DHT22;12308;50.948;4.706;2022-12-07T01:43:33;6.60;99.90
24146;DHT22;12308;50.948;4.706;2022-12-07T01:46:00;6.50;99.90
24146;DHT22;12308;50.948;4.706;2022-12-07T01:48:36;6.40;99.90
24146;DHT22;12308;50.948;4.706;2022-12-07T01:51:06;6.30;99.90
24146;DHT22;12308;50.948;4.706;2022-12-07T01:53:36;6.30;99.90
24146;DHT22;12308;50.948;4.706;2022-12-07T01:56:05;6.30;99.90
24146;DHT22;12308;50.948;4.706;2022-12-07T01:58:32;6.40;99.90
24146;DHT22;12308;50.948;4.706;2022-12-07T02:00:58;6.30;99.90
24146;DHT22;12308;50.948;4.706;2022-12-07T02:03:29;6.20;99.90
24146;DHT22;12308;50.948;4.706;2022-12-07T02:05:57;6.10;99.90
24146;DHT22;12308;50.948;4.706;2022-12-07T02:08:24;6.10;99.90
24146;DHT22;12308;50.948;4.706;2022-12-07T02:10:50;6.20;99.90
24146;DHT22;12308;50.948;4.706;2022-12-07T02:13:22;6.10;99.90
24146;DHT22;12308;50.948;4.706;2022-12-07T02:19:24;6.10;99.90
24146;DHT22;12308;50.948;4.706;2022-12-07T02:30:19;5.80;99.90
24146;DHT22;12308;50.948;4.706;2022-12-07T02:33:04;5.80;99.90
24146;DHT22;12308;50.948;4.706;2022-12-07T02:35:41;5.80;99.90
24146;DHT22;12308;50.948;4.706;2022-12-07T02:38:38;5.80;99.90
24146;DHT22;12308;50.948;4.706;2022-12-07T02:43:55;6.00;99.90
24146;DHT22;12308;50.948;4.706;2022-12-07T02:46:36;5.90;99.90
24146;DHT22;12308;50.948;4.706;2022-12-07T02:49:03;6.00;99.90
24146;DHT22;12308;50.948;4.706;2022-12-07T02:51:33;6.00;99.90
24146;DHT22;12308;50.948;4.706;2022-12-07T02:53:59;6.10;99.90
24146;DHT22;12308;50.948;4.706;2022-12-07T02:56:45;6.10;99.90
24146;DHT22;12308;50.948;4.706;2022-12-07T03:02:42;6.10;99.90
24146;DHT22;12308;50.948;4.706;2022-12-07T03:05:23;6.00;99.90
24146;DHT22;12308;50.948;4.706;2022-12-07T03:11:02;6.20;99.90
24146;DHT22;12308;50.948;4.706;2022-12-07T03:13:37;6.10;99.90
24146;DHT22;12308;50.948;4.706;2022-12-07T03:16:20;6.00;99.90
24146;DHT22;12308;50.948;4.706;2022-12-07T03:18:52;6.00;99.90
24146;DHT22;12308;50.948;4.706;2022-12-07T03:21:23;6.20;99.90
24146;DHT22;12308;50.948;4.706;2022-12-07T03:23:53;6.20;99.90
24146;DHT22;12308;50.948;4.706;2022-12-07T03:26:22;6.30;99.90
24146;DHT22;12308;50.948;4.706;2022-12-07T03:28:55;6.10;99.90
24146;DHT22;12308;50.948;4.706;2022-12-07T03:31:28;6.30;99.90
24146;DHT22;12308;50.948;4.706;2022-12-07T03:34:11;6.20;99.90
24146;DHT22;12308;50.948;4.706;2022-12-07T03:36:47;6.40;99.90
24146;DHT22;12308;50.948;4.706;2022-12-07T03:39:29;6.30;99.90
24146;DHT22;12308;50.948;4.706;2022-12-07T03:41:58;6.30;99.90
24146;DHT22;12308;50.948;4.706;2022-12-07T03:44:25;6.20;99.90
24146;DHT22;12308;50.948;4.706;2022-12-07T03:47:04;6.20;99.90
24146;DHT22;12308;50.948;4.706;2022-12-07T03:49:42;6.30;99.90
24146;DHT22;12308;50.948;4.706;2022-12-07T03:52:22;6.30;99.90
24146;DHT22;12308;50.948;4.706;2022-12-07T03:54:52;6.30;99.90
24146;DHT22;12308;50.948;4.706;2022-12-07T03:57:22;6.30;99.90
24146;DHT22;12308;50.948;4.706;2022-12-07T03:59:49;6.20;99.90
24146;DHT22;12308;50.948;4.706;2022-12-07T04:02:16;6.10;99.90
24146;DHT22;12308;50.948;4.706;2022-12-07T04:04:43;6.10;99.90
24146;DHT22;12308;50.948;4.706;2022-12-07T04:07:09;6.10;99.90
24146;DHT22;12308;50.948;4.706;2022-12-07T04:09:34;6.00;99.90
24146;DHT22;12308;50.948;4.706;2022-12-07T04:12:00;5.90;99.90
24146;DHT22;12308;50.948;4.706;2022-12-07T04:14:26;5.80;99.90
24146;DHT22;12308;50.948;4.706;2022-12-07T04:16:54;5.70;99.90
24146;DHT22;12308;50.948;4.706;2022-12-07T04:19:27;5.60;99.90
24146;DHT22;12308;50.948;4.706;2022-12-07T04:21:53;5.60;99.90
24146;DHT22;12308;50.948;4.706;2022-12-07T04:24:19;5.40;99.90
24146;DHT22;12308;50.948;4.706;2022-12-07T04:26:45;5.40;99.90
24146;DHT22;12308;50.948;4.706;2022-12-07T04:29:11;5.30;99.90
24146;DHT22;12308;50.948;4.706;2022-12-07T04:31:37;5.30;99.90
24146;DHT22;12308;50.948;4.706;2022-12-07T04:34:03;5.20;99.90
24146;DHT22;12308;50.948;4.706;2022-12-07T04:36:30;5.20;99.90
24146;DHT22;12308;50.948;4.706;2022-12-07T04:38:56;5.20;99.90
24146;DHT22;12308;50.948;4.706;2022-12-07T04:41:23;5.20;99.90
24146;DHT22;12308;50.948;4.706;2022-12-07T04:43:59;5.30;99.90
24146;DHT22;12308;50.948;4.706;2022-12-07T04:46:27;5.30;99.90
24146;DHT22;12308;50.948;4.706;2022-12-07T04:48:54;5.30;99.90
24146;DHT22;12308;50.948;4.706;2022-12-07T04:51:22;5.40;99.90
24146;DHT22;12308;50.948;4.706;2022-12-07T04:53:48;5.20;99.90
24146;DHT22;12308;50.948;4.706;2022-12-07T04:56:15;5.10;99.90
24146;DHT22;12308;50.948;4.706;2022-12-07T04:58:42;5.00;99.90
24146;DHT22;12308;50.948;4.706;2022-12-07T05:01:07;4.90;99.90
24146;DHT22;12308;50.948;4.706;2022-12-07T05:03:33;4.80;99.90
24146;DHT22;12308;50.948;4.706;2022-12-07T05:05:59;4.80;99.90
24146;DHT22;12308;50.948;4.706;2022-12-07T05:08:24;4.80;99.90
24146;DHT22;12308;50.948;4.706;2022-12-07T05:10:50;4.80;99.90
24146;DHT22;12308;50.948;4.706;2022-12-07T05:13:15;4.90;99.90
24146;DHT22;12308;50.948;4.706;2022-12-07T05:15:41;5.00;99.90
24146;DHT22;12308;50.948;4.706;2022-12-07T05:18:09;5.00;99.90
24146;DHT22;12308;50.948;4.706;2022-12-07T05:20:41;5.10;99.90
24146;DHT22;12308;50.948;4.706;2022-12-07T05:23:07;5.20;99.90
24146;DHT22;12308;50.948;4.706;2022-12-07T05:25:32;5.30;99.90
24146;DHT22;12308;50.948;4.706;2022-12-07T05:27:58;5.30;99.90
24146;DHT22;12308;50.948;4.706;2022-12-07T05:30:24;5.40;99.90
24146;DHT22;12308;50.948;4.706;2022-12-07T05:32:50;5.40;99.90
24146;DHT22;12308;50.948;4.706;2022-12-07T05:35:17;5.40;99.90
24146;DHT22;12308;50.948;4.706;2022-12-07T05:37:43;5.50;99.90
24146;DHT22;12308;50.948;4.706;2022-12-07T05:40:10;5.60;99.90
24146;DHT22;12308;50.948;4.706;2022-12-07T05:42:36;5.60;99.90
24146;DHT22;12308;50.948;4.706;2022-12-07T05:45:02;5.60;99.90
24146;DHT22;12308;50.948;4.706;2022-12-07T05:47:27;5.60;99.90
24146;DHT22;12308;50.948;4.706;2022-12-07T05:49:53;5.60;99.90
24146;DHT22;12308;50.948;4.706;2022-12-07T05:52:19;5.60;99.90
24146;DHT22;12308;50.948;4.706;2022-12-07T05:54:44;5.70;99.90
24146;DHT22;12308;50.948;4.706;2022-12-07T05:57:10;5.60;99.90
24146;DHT22;12308;50.948;4.706;2022-12-07T05:59:36;5.70;99.90
24146;DHT22;12308;50.948;4.706;2022-12-07T06:02:05;5.70;99.90
24146;DHT22;12308;50.948;4.706;2022-12-07T06:04:34;5.60;99.90
24146;DHT22;12308;50.948;4.706;2022-12-07T06:07:00;5.60;99.90
24146;DHT22;12308;50.948;4.706;2022-12-07T06:09:27;5.60;99.90
24146;DHT22;12308;50.948;4.706;2022-12-07T06:11:54;5.60;99.90
24146;DHT22;12308;50.948;4.706;2022-12-07T06:14:39;5.50;99.90
24146;DHT22;12308;50.948;4.706;2022-12-07T06:17:05;5.70;99.90
24146;DHT22;12308;50.948;4.706;2022-12-07T06:19:30;5.70;99.90
24146;DHT22;12308;50.948;4.706;2022-12-07T06:21:56;5.70;99.90
24146;DHT22;12308;50.948;4.706;2022-12-07T06:24:22;5.70;99.90
24146;DHT22;12308;50.948;4.706;2022-12-07T06:26:48;5.70;99.90
24146;DHT22;12308;50.948;4.706;2022-12-07T06:29:14;5.80;99.90
24146;DHT22;12308;50.948;4.706;2022-12-07T06:31:40;5.80;99.90
24146;DHT22;12308;50.948;4.706;2022-12-07T06:34:10;5.60;99.90
24146;DHT22;12308;50.948;4.706;2022-12-07T06:36:36;5.70;99.90
24146;DHT22;12308;50.948;4.706;2022-12-07T06:39:03;5.70;99.90
24146;DHT22;12308;50.948;4.706;2022-12-07T06:41:29;5.70;99.90
24146;DHT22;12308;50.948;4.706;2022-12-07T06:43:54;5.70;99.90
24146;DHT22;12308;50.948;4.706;2022-12-07T06:46:20;5.70;99.90
24146;DHT22;12308;50.948;4.706;2022-12-07T06:48:46;5.60;99.90
24146;DHT22;12308;50.948;4.706;2022-12-07T06:51:11;5.70;99.90
24146;DHT22;12308;50.948;4.706;2022-12-07T06:53:37;5.70;99.90
24146;DHT22;12308;50.948;4.706;2022-12-07T06:56:03;5.70;99.90
24146;DHT22;12308;50.948;4.706;2022-12-07T06:58:29;5.80;99.90
24146;DHT22;12308;50.948;4.706;2022-12-07T07:00:55;5.90;99.90
24146;DHT22;12308;50.948;4.706;2022-12-07T07:03:21;5.90;99.90
24146;DHT22;12308;50.948;4.706;2022-12-07T07:05:47;6.00;99.90
24146;DHT22;12308;50.948;4.706;2022-12-07T07:08:13;6.00;99.90
24146;DHT22;12308;50.948;4.706;2022-12-07T07:10:39;6.00;99.90
24146;DHT22;12308;50.948;4.706;2022-12-07T07:13:05;6.10;99.90
24146;DHT22;12308;50.948;4.706;2022-12-07T07:15:32;6.00;99.90
24146;DHT22;12308;50.948;4.706;2022-12-07T07:17:58;6.00;99.90
24146;DHT22;12308;50.948;4.706;2022-12-07T07:20:24;6.20;99.90
24146;DHT22;12308;50.948;4.706;2022-12-07T07:22:49;6.10;99.90
24146;DHT22;12308;50.948;4.706;2022-12-07T07:25:15;6.00;99.90
24146;DHT22;12308;50.948;4.706;2022-12-07T07:27:41;6.00;99.90
24146;DHT22;12308;50.948;4.706;2022-12-07T07:30:08;6.10;99.90
24146;DHT22;12308;50.948;4.706;2022-12-07T07:32:34;6.10;99.90
24146;DHT22;12308;50.948;4.706;2022-12-07T07:35:00;6.00;99.90
24146;DHT22;12308;50.948;4.706;2022-12-07T07:37:26;5.90;99.90
24146;DHT22;12308;50.948;4.706;2022-12-07T07:39:51;5.90;99.90
24146;DHT22;12308;50.948;4.706;2022-12-07T07:42:17;5.80;99.90
24146;DHT22;12308;50.948;4.706;2022-12-07T07:44:43;5.60;99.90
24146;DHT22;12308;50.948;4.706;2022-12-07T07:47:08;5.60;99.90
24146;DHT22;12308;50.948;4.706;2022-12-07T07:49:34;5.30;99.90
24146;DHT22;12308;50.948;4.706;2022-12-07T07:52:00;5.20;99.90
24146;DHT22;12308;50.948;4.706;2022-12-07T07:54:25;5.20;99.90
24146;DHT22;12308;50.948;4.706;2022-12-07T07:56:52;5.20;99.90
24146;DHT22;12308;50.948;4.706;2022-12-07T07:59:18;5.20;99.90
24146;DHT22;12308;50.948;4.706;2022-12-07T08:01:43;5.20;99.90
24146;DHT22;12308;50.948;4.706;2022-12-07T08:04:09;5.10;99.90
24146;DHT22;12308;50.948;4.706;2022-12-07T08:06:35;5.10;99.90
24146;DHT22;12308;50.948;4.706;2022-12-07T08:09:01;5.10;99.90
24146;DHT22;12308;50.948;4.706;2022-12-07T08:11:26;5.10;99.90
24146;DHT22;12308;50.948;4.706;2022-12-07T08:13:52;5.10;99.90
24146;DHT22;12308;50.948;4.706;2022-12-07T08:16:18;5.10;99.90
24146;DHT22;12308;50.948;4.706;2022-12-07T08:18:44;5.10;99.90
24146;DHT22;12308;50.948;4.706;2022-12-07T08:21:12;5.30;99.90
24146;DHT22;12308;50.948;4.706;2022-12-07T08:23:37;5.40;99.90
24146;DHT22;12308;50.948;4.706;2022-12-07T08:26:06;5.70;99.90
24146;DHT22;12308;50.948;4.706;2022-12-07T08:28:31;5.70;99.90
24146;DHT22;12308;50.948;4.706;2022-12-07T08:31:10;5.70;99.90
24146;DHT22;12308;50.948;4.706;2022-12-07T08:33:37;5.70;99.90
24146;DHT22;12308;50.948;4.706;2022-12-07T08:36:09;5.70;99.90
24146;DHT22;12308;50.948;4.706;2022-12-07T08:38:36;5.70;99.90
24146;DHT22;12308;50.948;4.706;2022-12-07T08:41:02;5.80;99.90
24146;DHT22;12308;50.948;4.706;2022-12-07T08:43:28;5.80;99.90
24146;DHT22;12308;50.948;4.706;2022-12-07T08:46:05;5.90;99.90
24146;DHT22;12308;50.948;4.706;2022-12-07T08:48:31;6.00;99.90
24146;DHT22;12308;50.948;4.706;2022-12-07T08:50:58;6.10;99.90
24146;DHT22;12308;50.948;4.706;2022-12-07T08:53:24;6.20;99.90
24146;DHT22;12308;50.948;4.706;2022-12-07T08:55:50;6.30;99.90
24146;DHT22;12308;50.948;4.706;2022-12-07T08:58:16;6.50;99.90
24146;DHT22;12308;50.948;4.706;2022-12-07T09:00:41;6.40;99.90
24146;DHT22;12308;50.948;4.706;2022-12-07T09:03:07;6.40;99.90
24146;DHT22;12308;50.948;4.706;2022-12-07T09:05:33;6.30;99.90
24146;DHT22;12308;50.948;4.706;2022-12-07T09:08:00;6.10;99.90
24146;DHT22;12308;50.948;4.706;2022-12-07T09:10:27;6.10;99.90
24146;DHT22;12308;50.948;4.706;2022-12-07T09:12:53;6.10;99.90
24146;DHT22;12308;50.948;4.706;2022-12-07T09:15:19;6.20;99.90
24146;DHT22;12308;50.948;4.706;2022-12-07T09:17:44;6.20;99.90
24146;DHT22;12308;50.948;4.706;2022-12-07T09:20:10;6.10;99.90
24146;DHT22;12308;50.948;4.706;2022-12-07T09:22:37;6.00;99.90
24146;DHT22;12308;50.948;4.706;2022-12-07T09:25:03;5.90;99.90
24146;DHT22;12308;50.948;4.706;2022-12-07T09:27:29;6.00;99.90
24146;DHT22;12308;50.948;4.706;2022-12-07T09:29:55;6.20;99.90
24146;DHT22;12308;50.948;4.706;2022-12-07T09:32:21;6.20;99.90
24146;DHT22;12308;50.948;4.706;2022-12-07T09:34:47;6.00;99.90
24146;DHT22;12308;50.948;4.706;2022-12-07T09:37:13;6.00;99.90
24146;DHT22;12308;50.948;4.706;2022-12-07T09:39:39;6.10;99.90
24146;DHT22;12308;50.948;4.706;2022-12-07T09:42:06;6.20;99.90
24146;DHT22;12308;50.948;4.706;2022-12-07T09:44:34;6.30;99.90
24146;DHT22;12308;50.948;4.706;2022-12-07T09:47:00;6.40;99.90
24146;DHT22;12308;50.948;4.706;2022-12-07T09:49:29;6.60;99.90
24146;DHT22;12308;50.948;4.706;2022-12-07T09:52:17;6.60;99.90
24146;DHT22;12308;50.948;4.706;2022-12-07T09:54:48;6.80;99.90
24146;DHT22;12308;50.948;4.706;2022-12-07T09:57:14;6.90;99.90
24146;DHT22;12308;50.948;4.706;2022-12-07T09:59:40;6.90;99.90
24146;DHT22;12308;50.948;4.706;2022-12-07T10:02:40;6.90;99.90
24146;DHT22;12308;50.948;4.706;2022-12-07T10:05:14;6.90;99.90
24146;DHT22;12308;50.948;4.706;2022-12-07T10:07:41;6.90;99.90
24146;DHT22;12308;50.948;4.706;2022-12-07T10:10:15;6.90;99.90
24146;DHT22;12308;50.948;4.706;2022-12-07T10:13:02;7.10;99.90
24146;DHT22;12308;50.948;4.706;2022-12-07T10:15:50;7.20;99.90
24146;DHT22;12308;50.948;4.706;2022-12-07T10:18:30;7.20;99.90
24146;DHT22;12308;50.948;4.706;2022-12-07T10:21:17;7.50;99.90
24146;DHT22;12308;50.948;4.706;2022-12-07T10:24:13;7.70;99.90
24146;DHT22;12308;50.948;4.706;2022-12-07T10:29:17;7.80;99.90
24146;DHT22;12308;50.948;4.706;2022-12-07T10:31:45;7.80;99.90
24146;DHT22;12308;50.948;4.706;2022-12-07T10:34:23;7.60;99.90
24146;DHT22;12308;50.948;4.706;2022-12-07T10:36:50;7.60;99.90
24146;DHT22;12308;50.948;4.706;2022-12-07T10:39:23;7.70;99.90
24146;DHT22;12308;50.948;4.706;2022-12-07T10:42:02;7.80;99.90
24146;DHT22;12308;50.948;4.706;2022-12-07T10:44:30;7.90;99.90
24146;DHT22;12308;50.948;4.706;2022-12-07T11:03:45;7.80;99.90
24146;DHT22;12308;50.948;4.706;2022-12-07T11:06:27;7.80;99.90
24146;DHT22;12308;50.948;4.706;2022-12-07T11:11:55;7.70;99.90
24146;DHT22;12308;50.948;4.706;2022-12-07T11:14:36;7.70;99.90
24146;DHT22;12308;50.948;4.706;2022-12-07T11:17:20;7.60;99.90
24146;DHT22;12308;50.948;4.706;2022-12-07T11:25:32;7.70;99.90
24146;DHT22;12308;50.948;4.706;2022-12-07T11:36:31;7.80;99.90
24146;DHT22;12308;50.948;4.706;2022-12-07T11:39:28;8.00;99.90
24146;DHT22;12308;50.948;4.706;2022-12-07T11:45:03;7.80;99.90
24146;DHT22;12308;50.948;4.706;2022-12-07T11:47:39;7.60;99.90
24146;DHT22;12308;50.948;4.706;2022-12-07T11:50:27;7.60;99.90
24146;DHT22;12308;50.948;4.706;2022-12-07T11:53:03;7.80;99.90
24146;DHT22;12308;50.948;4.706;2022-12-07T11:55:47;8.20;99.90
24146;DHT22;12308;50.948;4.706;2022-12-07T12:03:51;8.20;99.90
24146;DHT22;12308;50.948;4.706;2022-12-07T12:06:17;8.40;99.90
24146;DHT22;12308;50.948;4.706;2022-12-07T12:08:48;8.50;99.90
24146;DHT22;12308;50.948;4.706;2022-12-07T12:11:46;8.50;99.90
24146;DHT22;12308;50.948;4.706;2022-12-07T12:14:38;8.50;99.90
24146;DHT22;12308;50.948;4.706;2022-12-07T12:17:34;8.50;99.90
24146;DHT22;12308;50.948;4.706;2022-12-07T12:22:55;8.10;99.90
24146;DHT22;12308;50.948;4.706;2022-12-07T12:25:26;7.90;99.90
24146;DHT22;12308;50.948;4.706;2022-12-07T12:27:55;8.00;99.90
24146;DHT22;12308;50.948;4.706;2022-12-07T12:30:39;7.90;99.90
24146;DHT22;12308;50.948;4.706;2022-12-07T12:33:29;7.90;99.90
24146;DHT22;12308;50.948;4.706;2022-12-07T12:39:13;8.00;99.90
24146;DHT22;12308;50.948;4.706;2022-12-07T12:46:55;8.30;99.90
24146;DHT22;12308;50.948;4.706;2022-12-07T12:51:56;8.60;99.90
24146;DHT22;12308;50.948;4.706;2022-12-07T12:54:30;8.70;99.90
24146;DHT22;12308;50.948;4.706;2022-12-07T13:02:29;8.70;99.90
24146;DHT22;12308;50.948;4.706;2022-12-07T13:10:37;8.60;99.90
24146;DHT22;12308;50.948;4.706;2022-12-07T13:15:49;8.70;99.90
24146;DHT22;12308;50.948;4.706;2022-12-07T13:23:23;8.60;99.90
24146;DHT22;12308;50.948;4.706;2022-12-07T13:33:49;8.60;99.90
24146;DHT22;12308;50.948;4.706;2022-12-07T13:38:58;8.40;99.90
24146;DHT22;12308;50.948;4.706;2022-12-07T13:41:29;8.40;99.90
24146;DHT22;12308;50.948;4.706;2022-12-07T13:44:13;8.60;99.90
24146;DHT22;12308;50.948;4.706;2022-12-07T13:47:14;8.30;99.90
24146;DHT22;12308;50.948;4.706;2022-12-07T13:49:49;8.00;99.90
24146;DHT22;12308;50.948;4.706;2022-12-07T13:52:23;7.80;99.90
24146;DHT22;12308;50.948;4.706;2022-12-07T13:57:21;7.90;99.90
24146;DHT22;12308;50.948;4.706;2022-12-07T13:59:47;7.70;99.90
24146;DHT22;12308;50.948;4.706;2022-12-07T14:02:30;7.80;99.90
24146;DHT22;12308;50.948;4.706;2022-12-07T14:05:23;7.80;99.90
24146;DHT22;12308;50.948;4.706;2022-12-07T14:08:20;7.80;99.90
24146;DHT22;12308;50.948;4.706;2022-12-07T14:13:34;7.80;99.90
24146;DHT22;12308;50.948;4.706;2022-12-07T14:16:03;7.80;99.90
24146;DHT22;12308;50.948;4.706;2022-12-07T14:18:39;7.80;99.90
24146;DHT22;12308;50.948;4.706;2022-12-07T14:23:36;7.60;99.90
24146;DHT22;12308;50.948;4.706;2022-12-07T14:26:21;7.70;99.90
24146;DHT22;12308;50.948;4.706;2022-12-07T14:28:47;7.80;99.90
24146;DHT22;12308;50.948;4.706;2022-12-07T14:31:17;7.70;99.90
24146;DHT22;12308;50.948;4.706;2022-12-07T14:33:45;7.50;99.90
24146;DHT22;12308;50.948;4.706;2022-12-07T14:36:12;7.30;99.90
24146;DHT22;12308;50.948;4.706;2022-12-07T14:38:38;7.00;99.90
24146;DHT22;12308;50.948;4.706;2022-12-07T14:41:06;6.90;99.90
24146;DHT22;12308;50.948;4.706;2022-12-07T14:43:54;6.80;99.90
24146;DHT22;12308;50.948;4.706;2022-12-07T14:46:20;6.80;99.90
24146;DHT22;12308;50.948;4.706;2022-12-07T14:48:45;6.70;99.90
24146;DHT22;12308;50.948;4.706;2022-12-07T14:51:12;6.70;99.90
24146;DHT22;12308;50.948;4.706;2022-12-07T14:53:42;6.90;99.90
24146;DHT22;12308;50.948;4.706;2022-12-07T14:56:09;7.00;99.90
24146;DHT22;12308;50.948;4.706;2022-12-07T14:58:35;7.00;99.90
24146;DHT22;12308;50.948;4.706;2022-12-07T15:01:01;7.00;99.90
24146;DHT22;12308;50.948;4.706;2022-12-07T15:03:26;7.00;99.90
24146;DHT22;12308;50.948;4.706;2022-12-07T15:05:52;7.10;99.90
24146;DHT22;12308;50.948;4.706;2022-12-07T15:08:18;7.00;99.90
24146;DHT22;12308;50.948;4.706;2022-12-07T15:10:43;6.90;99.90
24146;DHT22;12308;50.948;4.706;2022-12-07T15:13:09;6.90;99.90
24146;DHT22;12308;50.948;4.706;2022-12-07T15:15:54;6.90;99.90
24146;DHT22;12308;50.948;4.706;2022-12-07T15:18:21;6.80;99.90
24146;DHT22;12308;50.948;4.706;2022-12-07T15:20:47;6.80;99.90
24146;DHT22;12308;50.948;4.706;2022-12-07T15:23:13;6.80;99.90
24146;DHT22;12308;50.948;4.706;2022-12-07T15:25:43;6.70;99.90
24146;DHT22;12308;50.948;4.706;2022-12-07T15:28:09;6.60;99.90
24146;DHT22;12308;50.948;4.706;2022-12-07T15:30:37;6.60;99.90
24146;DHT22;12308;50.948;4.706;2022-12-07T15:33:03;6.60;99.90
24146;DHT22;12308;50.948;4.706;2022-12-07T15:35:29;6.50;99.90
24146;DHT22;12308;50.948;4.706;2022-12-07T15:37:54;6.40;99.90
24146;DHT22;12308;50.948;4.706;2022-12-07T15:40:20;6.40;99.90
24146;DHT22;12308;50.948;4.706;2022-12-07T15:42:46;6.40;99.90
24146;DHT22;12308;50.948;4.706;2022-12-07T15:45:12;6.40;99.90
24146;DHT22;12308;50.948;4.706;2022-12-07T15:47:43;6.50;99.90
24146;DHT22;12308;50.948;4.706;2022-12-07T15:50:13;6.50;99.90
24146;DHT22;12308;50.948;4.706;2022-12-07T15:52:39;6.50;99.90
24146;DHT22;12308;50.948;4.706;2022-12-07T15:55:05;6.50;99.90
24146;DHT22;12308;50.948;4.706;2022-12-07T15:57:32;6.50;99.90
24146;DHT22;12308;50.948;4.706;2022-12-07T15:59:59;6.60;99.90
24146;DHT22;12308;50.948;4.706;2022-12-07T16:02:25;6.70;99.90
24146;DHT22;12308;50.948;4.706;2022-12-07T16:04:51;6.80;99.90
24146;DHT22;12308;50.948;4.706;2022-12-07T16:07:17;6.90;99.90
24146;DHT22;12308;50.948;4.706;2022-12-07T16:09:44;6.90;99.90
24146;DHT22;12308;50.948;4.706;2022-12-07T16:12:10;6.70;99.90
24146;DHT22;12308;50.948;4.706;2022-12-07T16:14:37;6.70;99.90
24146;DHT22;12308;50.948;4.706;2022-12-07T16:17:04;6.70;99.90
24146;DHT22;12308;50.948;4.706;2022-12-07T16:19:30;6.70;99.90
24146;DHT22;12308;50.948;4.706;2022-12-07T16:21:56;6.70;99.90
24146;DHT22;12308;50.948;4.706;2022-12-07T16:24:23;6.70;99.90
24146;DHT22;12308;50.948;4.706;2022-12-07T16:26:49;6.70;99.90
24146;DHT22;12308;50.948;4.706;2022-12-07T16:29:15;6.70;99.90
24146;DHT22;12308;50.948;4.706;2022-12-07T16:31:40;6.70;99.90
24146;DHT22;12308;50.948;4.706;2022-12-07T16:34:08;6.80;99.90
24146;DHT22;12308;50.948;4.706;2022-12-07T16:36:33;6.90;99.90
24146;DHT22;12308;50.948;4.706;2022-12-07T16:38:59;6.80;99.90
24146;DHT22;12308;50.948;4.706;2022-12-07T16:41:25;6.80;99.90
24146;DHT22;12308;50.948;4.706;2022-12-07T16:43:51;6.90;99.90
24146;DHT22;12308;50.948;4.706;2022-12-07T16:46:17;6.90;99.90
24146;DHT22;12308;50.948;4.706;2022-12-07T16:48:43;6.70;99.90
24146;DHT22;12308;50.948;4.706;2022-12-07T16:51:11;6.70;99.90
24146;DHT22;12308;50.948;4.706;2022-12-07T16:53:38;6.70;99.90
24146;DHT22;12308;50.948;4.706;2022-12-07T16:56:09;6.70;99.90
24146;DHT22;12308;50.948;4.706;2022-12-07T16:58:35;6.60;99.90
24146;DHT22;12308;50.948;4.706;2022-12-07T17:01:12;6.50;99.90
24146;DHT22;12308;50.948;4.706;2022-12-07T17:03:39;6.50;99.90
24146;DHT22;12308;50.948;4.706;2022-12-07T17:06:15;6.70;99.90
24146;DHT22;12308;50.948;4.706;2022-12-07T17:08:42;6.80;99.90
24146;DHT22;12308;50.948;4.706;2022-12-07T17:11:12;6.90;99.90
24146;DHT22;12308;50.948;4.706;2022-12-07T17:13:38;6.90;99.90
24146;DHT22;12308;50.948;4.706;2022-12-07T17:16:23;6.90;99.90
24146;DHT22;12308;50.948;4.706;2022-12-07T17:18:48;6.90;99.90
24146;DHT22;12308;50.948;4.706;2022-12-07T17:21:14;6.80;99.90
24146;DHT22;12308;50.948;4.706;2022-12-07T17:23:39;6.80;99.90
24146;DHT22;12308;50.948;4.706;2022-12-07T17:26:11;6.70;99.90
24146;DHT22;12308;50.948;4.706;2022-12-07T17:28:37;6.80;99.90
24146;DHT22;12308;50.948;4.706;2022-12-07T17:31:09;6.60;99.90
24146;DHT22;12308;50.948;4.706;2022-12-07T17:33:35;6.60;99.90
24146;DHT22;12308;50.948;4.706;2022-12-07T17:36:12;6.70;99.90
24146;DHT22;12308;50.948;4.706;2022-12-07T17:38:38;6.70;99.90
24146;DHT22;12308;50.948;4.706;2022-12-07T17:41:18;6.70;99.90
24146;DHT22;12308;50.948;4.706;2022-12-07T17:44:06;6.60;99.90
24146;DHT22;12308;50.948;4.706;2022-12-07T17:46:32;6.50;99.90
24146;DHT22;12308;50.948;4.706;2022-12-07T17:48:58;6.60;99.90
24146;DHT22;12308;50.948;4.706;2022-12-07T17:51:24;6.70;99.90
24146;DHT22;12308;50.948;4.706;2022-12-07T17:54:09;6.70;99.90
24146;DHT22;12308;50.948;4.706;2022-12-07T17:56:35;6.70;99.90
24146;DHT22;12308;50.948;4.706;2022-12-07T17:59:02;6.60;99.90
24146;DHT22;12308;50.948;4.706;2022-12-07T18:01:28;6.60;99.90